createdAt,value
2019-02-12T00:00:25.849Z,0.00
2019-02-12T00:01:25.836Z,0.00
2019-02-12T00:02:25.818Z,0.00
2019-02-12T00:03:25.866Z,0.00
2019-02-12T00:04:25.798Z,0.00
2019-02-12T00:05:25.784Z,0.00
2019-02-12T00:06:25.771Z,0.00
2019-02-12T00:07:25.765Z,0.00
2019-02-12T00:08:25.781Z,0.00
2019-02-12T00:09:25.788Z,0.00
2019-02-12T00:10:25.855Z,0.00
2019-02-12T00:11:25.725Z,0.00
2019-02-12T00:12:25.706Z,0.00
2019-02-12T00:13:25.711Z,0.00
2019-02-12T00:14:25.747Z,0.00
2019-02-12T00:15:25.684Z,0.00
2019-02-12T00:16:25.708Z,0.00
2019-02-12T00:17:25.655Z,0.00
2019-02-12T00:18:25.828Z,0.00
2019-02-12T00:19:25.637Z,0.00
2019-02-12T00:20:25.631Z,0.00
2019-02-12T00:21:25.759Z,0.00
2019-02-12T00:22:25.665Z,0.00
2019-02-12T00:23:25.597Z,0.00
2019-02-12T00:24:25.588Z,0.00
2019-02-12T00:25:25.573Z,0.00
2019-02-12T00:26:25.587Z,0.00
2019-02-12T00:27:25.704Z,0.00
2019-02-12T00:28:25.543Z,0.00
2019-02-12T00:29:25.531Z,0.00
2019-02-12T00:30:25.702Z,0.00
2019-02-12T00:31:25.512Z,0.00
2019-02-12T00:32:25.511Z,0.00
2019-02-12T00:33:25.521Z,0.00
2019-02-12T00:34:25.479Z,0.00
2019-02-12T00:35:25.522Z,0.00
2019-02-12T00:36:25.477Z,0.00
2019-02-12T00:37:25.455Z,0.00
2019-02-12T00:38:25.445Z,0.00
2019-02-12T00:39:25.449Z,0.00
2019-02-12T00:40:25.414Z,0.00
2019-02-12T00:41:25.451Z,0.00
2019-02-12T00:42:25.436Z,0.00
2019-02-12T00:43:25.385Z,0.00
2019-02-12T00:44:25.404Z,0.00
2019-02-12T00:45:25.360Z,0.00
2019-02-12T00:46:25.346Z,0.00
2019-02-12T00:47:25.341Z,0.00
2019-02-12T00:48:25.367Z,0.00
2019-02-12T00:49:25.324Z,0.00
2019-02-12T00:50:25.332Z,0.00
2019-02-12T00:51:25.296Z,0.00
2019-02-12T00:52:25.301Z,0.00
2019-02-12T00:53:25.280Z,0.00
2019-02-12T00:54:25.325Z,0.00
2019-02-12T00:55:25.256Z,0.00
2019-02-12T00:56:25.248Z,0.00
2019-02-12T00:57:25.233Z,0.00
2019-02-12T00:58:25.225Z,0.00
2019-02-12T00:59:25.234Z,0.00
2019-02-12T01:00:25.241Z,0.00
2019-02-12T01:01:25.192Z,0.00
2019-02-12T01:02:25.187Z,0.00
2019-02-12T01:03:25.175Z,0.00
2019-02-12T01:04:25.164Z,0.00
2019-02-12T01:05:25.165Z,0.00
2019-02-12T01:06:25.176Z,0.00
2019-02-12T01:07:25.136Z,0.00
2019-02-12T01:08:25.130Z,0.00
2019-02-12T01:09:25.111Z,0.00
2019-02-12T01:10:25.110Z,0.00
2019-02-12T01:11:25.090Z,0.00
2019-02-12T01:12:25.141Z,0.00
2019-02-12T01:13:25.076Z,0.00
2019-02-12T01:14:25.060Z,0.00
2019-02-12T01:15:25.041Z,0.00
2019-02-12T01:16:25.040Z,0.00
2019-02-12T01:17:25.029Z,0.00
2019-02-12T01:18:25.057Z,0.00
2019-02-12T01:19:25.007Z,0.00
2019-02-12T01:20:24.995Z,0.00
2019-02-12T01:21:26.416Z,0.00
2019-02-12T01:22:24.973Z,0.00
2019-02-12T01:23:25.017Z,0.00
2019-02-12T01:24:24.947Z,0.00
2019-02-12T01:25:24.958Z,0.00
2019-02-12T01:26:24.933Z,0.00
2019-02-12T01:27:24.915Z,0.00
2019-02-12T01:28:24.908Z,0.00
2019-02-12T01:29:24.946Z,0.00
2019-02-12T01:30:24.926Z,0.00
2019-02-12T01:31:24.889Z,0.00
2019-02-12T01:32:24.894Z,0.00
2019-02-12T01:33:24.858Z,0.00
2019-02-12T01:34:24.845Z,0.00
2019-02-12T01:35:24.839Z,0.00
2019-02-12T01:36:24.865Z,0.00
2019-02-12T01:37:24.820Z,0.00
2019-02-12T01:38:24.820Z,0.00
2019-02-12T01:39:24.794Z,0.00
2019-02-12T01:40:24.783Z,0.00
2019-02-12T01:41:24.774Z,0.00
2019-02-12T01:42:24.801Z,0.00
2019-02-12T01:43:24.754Z,0.00
2019-02-12T01:44:24.754Z,0.00
2019-02-12T01:45:24.741Z,0.00
2019-02-12T01:46:24.718Z,0.00
2019-02-12T01:47:24.716Z,0.00
2019-02-12T01:48:24.741Z,0.00
2019-02-12T01:49:24.689Z,0.00
2019-02-12T01:50:24.676Z,0.00
2019-02-12T01:51:24.677Z,0.00
2019-02-12T01:52:24.653Z,0.00
2019-02-12T01:53:24.643Z,0.00
2019-02-12T01:54:24.669Z,0.00
2019-02-12T01:55:24.623Z,0.00
2019-02-12T01:56:24.613Z,0.00
2019-02-12T01:57:24.616Z,0.00
2019-02-12T01:58:24.629Z,0.00
2019-02-12T01:59:24.585Z,0.00
2019-02-12T02:00:24.579Z,0.00
2019-02-12T02:01:24.560Z,0.00
2019-02-12T02:02:24.549Z,0.00
2019-02-12T02:03:24.557Z,0.00
2019-02-12T02:04:24.567Z,0.00
2019-02-12T02:05:24.520Z,0.00
2019-02-12T02:06:24.508Z,0.00
2019-02-12T02:07:24.511Z,0.00
2019-02-12T02:08:24.487Z,0.00
2019-02-12T02:09:24.537Z,0.00
2019-02-12T02:10:24.466Z,0.00
2019-02-12T02:11:24.494Z,0.00
2019-02-12T02:12:24.445Z,0.00
2019-02-12T02:13:24.437Z,0.00
2019-02-12T02:14:24.422Z,0.00
2019-02-12T02:15:24.428Z,0.00
2019-02-12T02:16:24.407Z,0.00
2019-02-12T02:17:24.428Z,0.00
2019-02-12T02:18:24.380Z,0.00
2019-02-12T02:19:24.379Z,0.00
2019-02-12T02:20:24.358Z,0.00
2019-02-12T02:21:24.373Z,0.00
2019-02-12T02:22:24.379Z,0.00
2019-02-12T02:23:24.331Z,0.00
2019-02-12T02:24:24.356Z,0.00
2019-02-12T02:25:24.311Z,0.00
2019-02-12T02:26:24.309Z,0.00
2019-02-12T02:27:24.284Z,0.00
2019-02-12T02:28:24.283Z,0.00
2019-02-12T02:29:24.266Z,0.00
2019-02-12T02:30:24.303Z,0.00
2019-02-12T02:31:24.244Z,0.00
2019-02-12T02:32:24.229Z,0.00
2019-02-12T02:33:24.224Z,0.00
2019-02-12T02:34:24.223Z,0.00
2019-02-12T02:35:24.199Z,0.00
2019-02-12T02:36:24.229Z,0.00
2019-02-12T02:37:24.179Z,0.00
2019-02-12T02:38:24.168Z,0.00
2019-02-12T02:39:24.159Z,0.00
2019-02-12T02:40:24.165Z,0.00
2019-02-12T02:41:24.174Z,0.00
2019-02-12T02:42:24.126Z,0.00
2019-02-12T02:43:24.126Z,0.00
2019-02-12T02:44:24.106Z,0.00
2019-02-12T02:45:24.096Z,0.00
2019-02-12T02:46:24.096Z,0.00
2019-02-12T02:47:24.124Z,0.00
2019-02-12T02:48:24.074Z,0.00
2019-02-12T02:49:24.053Z,0.00
2019-02-12T02:50:24.039Z,0.00
2019-02-12T02:51:24.032Z,0.00
2019-02-12T02:52:24.033Z,0.00
2019-02-12T02:53:24.058Z,0.00
2019-02-12T02:54:24.018Z,0.00
2019-02-12T02:55:23.991Z,0.00
2019-02-12T02:56:23.981Z,0.00
2019-02-12T02:57:24.005Z,0.00
2019-02-12T02:58:23.960Z,0.00
2019-02-12T02:59:23.982Z,0.00
2019-02-12T03:00:23.940Z,0.00
2019-02-12T03:01:23.944Z,0.00
2019-02-12T03:02:23.919Z,0.00
2019-02-12T03:03:23.904Z,0.00
2019-02-12T03:04:23.894Z,0.00
2019-02-12T03:05:23.930Z,0.00
2019-02-12T03:06:23.875Z,0.00
2019-02-12T03:07:23.863Z,0.00
2019-02-12T03:08:23.875Z,0.00
2019-02-12T03:09:23.842Z,0.00
2019-02-12T03:10:23.832Z,0.00
2019-02-12T03:11:23.864Z,0.00
2019-02-12T03:12:23.813Z,0.00
2019-02-12T03:13:23.800Z,0.00
2019-02-12T03:14:23.793Z,0.00
2019-02-12T03:15:23.797Z,0.00
2019-02-12T03:16:23.770Z,0.00
2019-02-12T03:17:23.792Z,0.00
2019-02-12T03:18:23.753Z,0.00
2019-02-12T03:19:23.735Z,0.00
2019-02-12T03:20:23.723Z,0.00
2019-02-12T03:21:23.717Z,0.00
2019-02-12T03:22:23.765Z,0.00
2019-02-12T03:23:23.697Z,0.00
2019-02-12T03:24:23.687Z,0.00
2019-02-12T03:25:23.685Z,0.00
2019-02-12T03:26:23.671Z,0.00
2019-02-12T03:27:23.656Z,0.00
2019-02-12T03:28:23.694Z,0.00
2019-02-12T03:29:23.652Z,0.00
2019-02-12T03:30:23.633Z,0.00
2019-02-12T03:31:23.625Z,0.00
2019-02-12T03:32:23.603Z,0.00
2019-02-12T03:33:23.613Z,0.00
2019-02-12T03:34:23.617Z,0.00
2019-02-12T03:35:23.584Z,0.00
2019-02-12T03:36:23.568Z,0.00
2019-02-12T03:37:23.546Z,0.00
2019-02-12T03:38:23.539Z,0.00
2019-02-12T03:39:23.527Z,0.00
2019-02-12T03:40:23.563Z,0.00
2019-02-12T03:41:23.535Z,0.00
2019-02-12T03:42:23.495Z,0.00
2019-02-12T03:43:23.484Z,0.00
2019-02-12T03:44:23.484Z,0.00
2019-02-12T03:45:23.463Z,0.00
2019-02-12T03:46:23.506Z,0.00
2019-02-12T03:47:23.459Z,0.00
2019-02-12T03:48:23.432Z,0.00
2019-02-12T03:49:23.419Z,0.00
2019-02-12T03:50:23.450Z,0.00
2019-02-12T03:51:23.399Z,0.00
2019-02-12T03:52:23.386Z,0.00
2019-02-12T03:53:23.407Z,0.00
2019-02-12T03:54:23.365Z,0.00
2019-02-12T03:55:23.373Z,0.00
2019-02-12T03:56:23.394Z,0.00
2019-02-12T03:57:23.338Z,0.00
2019-02-12T03:58:23.322Z,0.00
2019-02-12T03:59:23.333Z,0.00
2019-02-12T04:00:23.309Z,0.00
2019-02-12T04:01:23.296Z,0.00
2019-02-12T04:02:23.321Z,0.00
2019-02-12T04:03:23.319Z,0.00
2019-02-12T04:04:23.264Z,0.00
2019-02-12T04:05:23.258Z,0.00
2019-02-12T04:06:23.257Z,0.00
2019-02-12T04:07:23.233Z,0.00
2019-02-12T04:08:23.259Z,0.00
2019-02-12T04:09:23.217Z,0.00
2019-02-12T04:10:23.201Z,0.00
2019-02-12T04:11:24.387Z,0.00
2019-02-12T04:12:23.176Z,0.00
2019-02-12T04:13:23.232Z,0.00
2019-02-12T04:14:23.158Z,0.00
2019-02-12T04:15:23.143Z,0.00
2019-02-12T04:16:23.141Z,0.00
2019-02-12T04:17:23.135Z,0.00
2019-02-12T04:18:23.111Z,0.00
2019-02-12T04:19:23.146Z,0.00
2019-02-12T04:20:23.110Z,0.00
2019-02-12T04:21:23.087Z,0.00
2019-02-12T04:22:23.350Z,0.00
2019-02-12T04:23:23.067Z,0.00
2019-02-12T04:24:23.050Z,0.00
2019-02-12T04:25:23.081Z,0.00
2019-02-12T04:26:23.027Z,0.00
2019-02-12T04:27:23.032Z,0.00
2019-02-12T04:28:23.015Z,0.00
2019-02-12T04:29:23.002Z,0.00
2019-02-12T04:30:22.996Z,0.00
2019-02-12T04:31:23.037Z,0.00
2019-02-12T04:32:22.966Z,0.00
2019-02-12T04:33:22.966Z,0.00
2019-02-12T04:34:22.945Z,0.00
2019-02-12T04:35:22.935Z,0.00
2019-02-12T04:36:22.924Z,0.00
2019-02-12T04:37:22.965Z,0.00
2019-02-12T04:38:22.922Z,0.00
2019-02-12T04:39:22.910Z,0.00
2019-02-12T04:40:22.884Z,0.00
2019-02-12T04:41:22.871Z,0.00
2019-02-12T04:42:22.860Z,0.00
2019-02-12T04:43:22.887Z,0.00
2019-02-12T04:44:22.854Z,0.00
2019-02-12T04:45:22.826Z,0.00
2019-02-12T04:46:22.824Z,0.00
2019-02-12T04:47:22.890Z,0.00
2019-02-12T04:48:23.225Z,0.00
2019-02-12T04:49:22.822Z,0.00
2019-02-12T04:50:22.776Z,0.00
2019-02-12T04:51:22.768Z,0.00
2019-02-12T04:52:31.610Z,0.00
2019-02-12T04:53:23.785Z,0.00
2019-02-12T04:54:22.734Z,0.00
2019-02-12T04:55:22.729Z,0.00
2019-02-12T04:56:22.718Z,0.00
2019-02-12T04:57:22.720Z,0.00
2019-02-12T04:58:22.694Z,0.00
2019-02-12T04:59:22.718Z,0.00
2019-02-12T05:00:22.728Z,0.00
2019-02-12T05:01:22.675Z,0.00
2019-02-12T05:02:22.650Z,0.00
2019-02-12T05:03:22.659Z,0.00
2019-02-12T05:04:22.633Z,0.00
2019-02-12T05:05:22.659Z,0.00
2019-02-12T05:06:22.707Z,0.00
2019-02-12T05:07:22.608Z,0.00
2019-02-12T05:08:22.585Z,0.00
2019-02-12T05:09:22.584Z,0.00
2019-02-12T05:10:22.589Z,0.00
2019-02-12T05:11:22.589Z,0.00
2019-02-12T05:12:22.545Z,0.00
2019-02-12T05:13:22.548Z,0.00
2019-02-12T05:14:22.536Z,0.00
2019-02-12T05:15:22.517Z,0.00
2019-02-12T05:16:22.509Z,0.00
2019-02-12T05:17:22.534Z,0.00
2019-02-12T05:18:22.495Z,0.00
2019-02-12T05:19:22.487Z,0.00
2019-02-12T05:20:22.459Z,0.00
2019-02-12T05:21:22.536Z,0.00
2019-02-12T05:22:22.464Z,0.00
2019-02-12T05:23:22.469Z,0.00
2019-02-12T05:24:22.417Z,0.00
2019-02-12T05:25:22.416Z,0.00
2019-02-12T05:26:22.396Z,0.00
2019-02-12T05:27:22.417Z,0.00
2019-02-12T05:28:22.404Z,0.00
2019-02-12T05:29:22.466Z,0.00
2019-02-12T05:30:22.385Z,0.00
2019-02-12T05:31:22.374Z,0.00
2019-02-12T05:32:22.435Z,0.00
2019-02-12T05:33:22.381Z,0.00
2019-02-12T05:34:22.356Z,0.00
2019-02-12T05:35:22.343Z,0.00
2019-02-12T05:36:22.315Z,0.00
2019-02-12T05:37:22.297Z,0.00
2019-02-12T05:38:22.289Z,0.00
2019-02-12T05:39:22.335Z,0.00
2019-02-12T05:40:22.274Z,0.00
2019-02-12T05:41:22.262Z,0.00
2019-02-12T05:42:22.256Z,0.00
2019-02-12T05:43:22.276Z,0.00
2019-02-12T05:44:22.230Z,0.00
2019-02-12T05:45:22.288Z,0.00
2019-02-12T05:46:22.211Z,0.00
2019-02-12T05:47:22.198Z,0.00
2019-02-12T05:48:22.233Z,0.00
2019-02-12T05:49:22.172Z,0.00
2019-02-12T05:50:22.173Z,0.00
2019-02-12T05:51:22.214Z,0.00
2019-02-12T05:52:22.158Z,0.00
2019-02-12T05:53:22.158Z,0.00
2019-02-12T05:54:22.126Z,0.00
2019-02-12T05:55:22.136Z,0.00
2019-02-12T05:56:22.083Z,0.00
2019-02-12T05:57:22.113Z,0.00
2019-02-12T05:58:22.157Z,0.00
2019-02-12T05:59:22.068Z,0.00
2019-02-12T06:00:22.041Z,0.00
2019-02-12T06:01:22.054Z,0.00
2019-02-12T06:02:22.056Z,0.00
2019-02-12T06:03:22.063Z,0.00
2019-02-12T06:04:22.000Z,0.00
2019-02-12T06:05:22.036Z,0.00
2019-02-12T06:06:22.008Z,0.00
2019-02-12T06:07:22.013Z,0.00
2019-02-12T06:08:21.977Z,0.00
2019-02-12T06:09:22.021Z,0.00
2019-02-12T06:10:21.992Z,0.00
2019-02-12T06:11:21.950Z,0.00
2019-02-12T06:12:21.933Z,0.00
2019-02-12T06:13:21.922Z,0.00
2019-02-12T06:14:22.003Z,0.00
2019-02-12T06:15:21.966Z,0.00
2019-02-12T06:16:21.913Z,0.00
2019-02-12T06:17:21.882Z,0.00
2019-02-12T06:18:21.910Z,0.00
2019-02-12T06:19:21.911Z,0.00
2019-02-12T06:20:21.856Z,0.00
2019-02-12T06:21:21.840Z,0.00
2019-02-12T06:22:21.838Z,0.00
2019-02-12T06:23:21.838Z,0.00
2019-02-12T06:24:21.820Z,0.00
2019-02-12T06:25:21.850Z,0.00
2019-02-12T06:26:21.785Z,0.00
2019-02-12T06:27:21.775Z,0.00
2019-02-12T06:28:21.755Z,0.00
2019-02-12T06:29:21.739Z,5.62
2019-02-12T06:30:21.730Z,5.62
2019-02-12T06:31:21.764Z,5.62
2019-02-12T06:32:21.736Z,5.62
2019-02-12T06:33:21.704Z,5.62
2019-02-12T06:34:21.772Z,5.62
2019-02-12T06:35:21.677Z,5.62
2019-02-12T06:36:21.668Z,5.62
2019-02-12T06:37:21.669Z,5.62
2019-02-12T06:38:21.645Z,11.25
2019-02-12T06:39:21.649Z,11.25
2019-02-12T06:40:21.668Z,11.25
2019-02-12T06:41:21.614Z,11.25
2019-02-12T06:42:21.605Z,11.25
2019-02-12T06:43:21.594Z,16.88
2019-02-12T06:44:21.597Z,16.88
2019-02-12T06:45:21.574Z,16.88
2019-02-12T06:46:21.594Z,16.88
2019-02-12T06:47:21.549Z,22.50
2019-02-12T06:48:21.537Z,22.50
2019-02-12T06:49:21.530Z,22.50
2019-02-12T06:50:21.524Z,22.50
2019-02-12T06:51:21.528Z,28.12
2019-02-12T06:52:21.538Z,28.12
2019-02-12T06:53:21.486Z,28.12
2019-02-12T06:54:21.497Z,33.75
2019-02-12T06:55:21.463Z,33.75
2019-02-12T06:56:21.458Z,33.75
2019-02-12T06:57:21.447Z,39.38
2019-02-12T06:58:21.486Z,39.38
2019-02-12T06:59:21.422Z,39.38
2019-02-12T07:00:21.417Z,45.00
2019-02-12T07:01:21.413Z,45.00
2019-02-12T07:02:21.395Z,45.00
2019-02-12T07:03:21.382Z,45.00
2019-02-12T07:04:21.409Z,45.00
2019-02-12T07:05:21.372Z,45.00
2019-02-12T07:06:21.354Z,45.00
2019-02-12T07:07:21.347Z,45.00
2019-02-12T07:08:21.330Z,50.62
2019-02-12T07:09:21.320Z,50.62
2019-02-12T07:10:21.346Z,50.62
2019-02-12T07:11:21.313Z,56.25
2019-02-12T07:12:21.289Z,61.88
2019-02-12T07:13:21.295Z,61.88
2019-02-12T07:14:21.284Z,67.50
2019-02-12T07:15:21.302Z,67.50
2019-02-12T07:16:21.248Z,67.50
2019-02-12T07:17:21.237Z,73.12
2019-02-12T07:18:21.236Z,78.75
2019-02-12T07:19:21.213Z,78.75
2019-02-12T07:20:21.204Z,78.75
2019-02-12T07:21:21.232Z,78.75
2019-02-12T07:22:21.187Z,84.38
2019-02-12T07:23:21.681Z,84.38
2019-02-12T07:24:21.173Z,84.38
2019-02-12T07:25:21.155Z,84.38
2019-02-12T07:26:21.143Z,90.00
2019-02-12T07:27:21.175Z,84.38
2019-02-12T07:28:21.120Z,90.00
2019-02-12T07:29:21.110Z,90.00
2019-02-12T07:30:21.106Z,90.00
2019-02-12T07:31:21.150Z,90.00
2019-02-12T07:32:21.095Z,90.00
2019-02-12T07:33:21.105Z,90.00
2019-02-12T07:34:21.076Z,90.00
2019-02-12T07:35:21.052Z,90.00
2019-02-12T07:36:21.040Z,95.62
2019-02-12T07:37:21.067Z,95.62
2019-02-12T07:38:21.018Z,95.62
2019-02-12T07:39:21.010Z,101.25
2019-02-12T07:40:21.005Z,101.25
2019-02-12T07:41:20.985Z,106.88
2019-02-12T07:42:21.019Z,112.50
2019-02-12T07:43:20.969Z,112.50
2019-02-12T07:44:20.961Z,118.12
2019-02-12T07:45:20.945Z,123.75
2019-02-12T07:46:20.942Z,123.75
2019-02-12T07:47:20.927Z,129.38
2019-02-12T07:48:20.959Z,129.38
2019-02-12T07:49:20.932Z,129.38
2019-02-12T07:50:20.891Z,129.38
2019-02-12T07:51:20.911Z,129.38
2019-02-12T07:52:20.917Z,129.38
2019-02-12T07:53:20.861Z,135.00
2019-02-12T07:54:20.847Z,135.00
2019-02-12T07:55:20.879Z,135.00
2019-02-12T07:56:20.850Z,135.00
2019-02-12T07:57:20.819Z,135.00
2019-02-12T07:58:20.862Z,135.00
2019-02-12T07:59:20.797Z,140.62
2019-02-12T08:00:20.786Z,146.25
2019-02-12T08:01:20.805Z,140.62
2019-02-12T08:02:20.781Z,140.62
2019-02-12T08:03:20.758Z,140.62
2019-02-12T08:04:20.788Z,140.62
2019-02-12T08:05:20.733Z,140.62
2019-02-12T08:06:20.737Z,140.62
2019-02-12T08:07:20.715Z,146.25
2019-02-12T08:08:20.714Z,146.25
2019-02-12T08:09:20.689Z,146.25
2019-02-12T08:10:20.806Z,146.25
2019-02-12T08:11:20.674Z,146.25
2019-02-12T08:12:20.663Z,146.25
2019-02-12T08:13:20.658Z,140.62
2019-02-12T08:14:20.703Z,140.62
2019-02-12T08:15:20.633Z,140.62
2019-02-12T08:16:20.671Z,146.25
2019-02-12T08:17:20.619Z,163.12
2019-02-12T08:18:20.600Z,264.38
2019-02-12T08:19:20.589Z,354.38
2019-02-12T08:20:20.599Z,461.25
2019-02-12T08:21:20.580Z,472.50
2019-02-12T08:22:20.620Z,483.75
2019-02-12T08:23:20.584Z,506.25
2019-02-12T08:24:20.530Z,528.75
2019-02-12T08:25:20.540Z,506.25
2019-02-12T08:26:20.531Z,500.62
2019-02-12T08:27:20.523Z,545.62
2019-02-12T08:28:20.495Z,545.62
2019-02-12T08:29:20.588Z,551.25
2019-02-12T08:30:20.501Z,545.62
2019-02-12T08:31:20.477Z,556.88
2019-02-12T08:32:20.467Z,562.50
2019-02-12T08:33:20.480Z,568.12
2019-02-12T08:34:20.475Z,573.75
2019-02-12T08:35:20.409Z,579.38
2019-02-12T08:36:20.410Z,585.00
2019-02-12T08:37:20.397Z,585.00
2019-02-12T08:38:20.411Z,590.62
2019-02-12T08:39:20.368Z,596.25
2019-02-12T08:40:20.402Z,601.88
2019-02-12T08:41:20.349Z,601.88
2019-02-12T08:42:20.352Z,613.12
2019-02-12T08:43:20.336Z,607.50
2019-02-12T08:44:20.365Z,607.50
2019-02-12T08:45:20.329Z,613.12
2019-02-12T08:46:20.415Z,618.75
2019-02-12T08:47:20.282Z,630.00
2019-02-12T08:48:20.285Z,630.00
2019-02-12T08:49:20.287Z,630.00
2019-02-12T08:50:20.253Z,607.50
2019-02-12T08:51:20.267Z,630.00
2019-02-12T08:52:20.267Z,658.12
2019-02-12T08:53:20.244Z,663.75
2019-02-12T08:54:20.218Z,669.38
2019-02-12T08:55:20.209Z,663.75
2019-02-12T08:56:20.207Z,669.38
2019-02-12T08:57:20.180Z,675.00
2019-02-12T08:58:20.203Z,686.25
2019-02-12T08:59:20.189Z,686.25
2019-02-12T09:00:20.155Z,686.25
2019-02-12T09:01:20.150Z,686.25
2019-02-12T09:02:20.127Z,686.25
2019-02-12T09:03:20.117Z,686.25
2019-02-12T09:04:20.182Z,686.25
2019-02-12T09:05:20.088Z,691.88
2019-02-12T09:06:20.099Z,691.88
2019-02-12T09:07:20.138Z,691.88
2019-02-12T09:08:20.066Z,691.88
2019-02-12T09:09:20.066Z,697.50
2019-02-12T09:10:20.106Z,697.50
2019-02-12T09:11:20.026Z,703.12
2019-02-12T09:12:20.023Z,714.38
2019-02-12T09:13:20.006Z,714.38
2019-02-12T09:14:20.018Z,720.00
2019-02-12T09:15:20.056Z,725.62
2019-02-12T09:16:19.978Z,731.25
2019-02-12T09:17:20.001Z,736.88
2019-02-12T09:18:19.950Z,736.88
2019-02-12T09:19:19.962Z,742.50
2019-02-12T09:20:19.925Z,748.12
2019-02-12T09:21:19.969Z,748.12
2019-02-12T09:22:19.909Z,753.75
2019-02-12T09:23:19.903Z,759.38
2019-02-12T09:24:19.905Z,765.00
2019-02-12T09:25:19.879Z,770.62
2019-02-12T09:26:19.880Z,781.88
2019-02-12T09:27:19.890Z,793.12
2019-02-12T09:28:19.858Z,798.75
2019-02-12T09:29:19.900Z,804.38
2019-02-12T09:30:19.826Z,804.38
2019-02-12T09:31:19.907Z,821.25
2019-02-12T09:32:19.809Z,826.88
2019-02-12T09:33:19.815Z,826.88
2019-02-12T09:34:19.806Z,826.88
2019-02-12T09:35:19.778Z,821.25
2019-02-12T09:36:19.770Z,821.25
2019-02-12T09:37:19.787Z,810.00
2019-02-12T09:38:19.740Z,804.38
2019-02-12T09:39:19.734Z,815.62
2019-02-12T09:40:19.724Z,821.25
2019-02-12T09:44:44.423Z,838.12
2019-02-12T09:49:48.064Z,905.62
2019-02-12T09:50:36.928Z,911.25
2019-02-12T09:51:25.211Z,916.88
2019-02-12T09:52:47.567Z,922.50
2019-02-12T09:53:26.358Z,939.38
2019-02-12T09:56:21.019Z,956.25
2019-02-12T09:57:20.866Z,973.12
2019-02-12T09:58:20.891Z,978.75
2019-02-12T09:59:20.829Z,984.38
2019-02-12T10:00:20.823Z,990.00
2019-02-12T10:01:20.822Z,990.00
2019-02-12T10:02:20.848Z,995.62
2019-02-12T10:03:20.789Z,1012.50
2019-02-12T10:04:20.792Z,1018.12
2019-02-12T10:05:20.783Z,1023.75
2019-02-12T10:06:22.879Z,1029.38
2019-02-12T10:07:20.805Z,1035.00
2019-02-12T10:08:20.736Z,1046.25
2019-02-12T10:09:20.803Z,1068.75
2019-02-12T10:10:20.725Z,1068.75
2019-02-12T10:11:20.691Z,1074.38
2019-02-12T10:12:20.693Z,1085.62
2019-02-12T10:13:20.744Z,1102.50
2019-02-12T10:14:20.681Z,1136.25
2019-02-12T10:15:20.664Z,1158.75
2019-02-12T10:16:20.662Z,1175.62
2019-02-12T10:17:20.631Z,1209.38
2019-02-12T10:18:20.677Z,1102.50
2019-02-12T10:19:20.620Z,1209.38
2019-02-12T10:20:20.599Z,1203.75
2019-02-12T10:21:20.656Z,1192.50
2019-02-12T10:22:20.579Z,1198.12
2019-02-12T10:23:20.580Z,1243.12
2019-02-12T10:24:20.627Z,1220.62
2019-02-12T10:25:20.544Z,1220.62
2019-02-12T10:26:20.533Z,1231.88
2019-02-12T10:27:20.560Z,1243.12
2019-02-12T10:28:20.515Z,2880.00
2019-02-12T10:29:20.581Z,2863.12
2019-02-12T10:30:20.581Z,2953.12
2019-02-12T10:31:20.482Z,3048.75
2019-02-12T10:32:20.519Z,3386.25
2019-02-12T10:33:20.474Z,3352.50
2019-02-12T10:34:20.448Z,3622.50
2019-02-12T10:35:20.489Z,3639.38
2019-02-12T10:36:20.450Z,3549.38
2019-02-12T10:37:20.414Z,3571.88
2019-02-12T10:38:20.411Z,3301.88
2019-02-12T10:39:20.398Z,3346.88
2019-02-12T10:40:20.373Z,3431.25
2019-02-12T10:41:20.412Z,3341.25
2019-02-12T10:42:20.365Z,3189.38
2019-02-12T10:43:20.353Z,3228.75
2019-02-12T10:44:20.350Z,3240.00
2019-02-12T10:45:20.338Z,3150.00
2019-02-12T10:46:20.327Z,2981.25
2019-02-12T10:47:20.341Z,2975.62
2019-02-12T10:48:20.292Z,3060.00
2019-02-12T10:49:20.500Z,3200.62
2019-02-12T10:50:20.272Z,3093.75
2019-02-12T10:51:20.255Z,3009.38
2019-02-12T10:52:20.244Z,2947.50
2019-02-12T10:53:20.237Z,3054.38
2019-02-12T10:54:27.728Z,3301.88
2019-02-12T10:55:21.247Z,3442.50
2019-02-12T10:56:20.202Z,3172.50
2019-02-12T10:57:20.197Z,3020.62
2019-02-12T10:58:20.215Z,3003.75
2019-02-12T10:59:20.221Z,2874.38
2019-02-12T11:00:20.157Z,2705.62
2019-02-12T11:01:20.158Z,3031.88
2019-02-12T11:02:20.158Z,3178.12
2019-02-12T11:03:21.052Z,3110.62
2019-02-12T11:04:21.552Z,3043.12
2019-02-12T11:05:20.154Z,3015.00
2019-02-12T11:06:20.102Z,3166.88
2019-02-12T11:07:20.081Z,3133.12
2019-02-12T11:08:20.641Z,2930.62
2019-02-12T11:09:20.078Z,3324.38
2019-02-12T11:10:20.065Z,3487.50
2019-02-12T11:11:20.040Z,3504.38
2019-02-12T11:12:20.038Z,2964.38
2019-02-12T11:13:20.032Z,2863.12
2019-02-12T11:14:20.046Z,2846.25
2019-02-12T11:15:20.062Z,2638.12
2019-02-12T11:16:20.019Z,3082.50
2019-02-12T11:17:19.978Z,2992.50
2019-02-12T11:18:19.962Z,2773.12
2019-02-12T11:19:19.961Z,2610.00
2019-02-12T11:20:19.988Z,2711.25
2019-02-12T11:21:19.931Z,2576.25
2019-02-12T11:22:19.923Z,2356.88
2019-02-12T11:23:19.914Z,2587.50
2019-02-12T11:24:19.920Z,2683.12
2019-02-12T11:25:19.945Z,2508.75
2019-02-12T11:26:19.881Z,2790.00
2019-02-12T11:27:19.866Z,3116.25
2019-02-12T11:28:19.866Z,3172.50
2019-02-12T11:29:19.847Z,3076.88
2019-02-12T11:30:19.841Z,2840.62
2019-02-12T11:31:19.935Z,2643.75
2019-02-12T11:32:19.813Z,2570.62
2019-02-12T11:33:19.827Z,2407.50
2019-02-12T11:34:19.800Z,2520.00
2019-02-12T11:35:19.820Z,2705.62
2019-02-12T11:36:19.770Z,2745.00
2019-02-12T11:37:19.761Z,2705.62
2019-02-12T11:38:19.749Z,2964.38
2019-02-12T11:39:19.754Z,2953.12
2019-02-12T11:40:19.732Z,2806.88
2019-02-12T11:41:19.794Z,2733.75
2019-02-12T11:42:19.707Z,2778.75
2019-02-12T11:43:19.690Z,2705.62
2019-02-12T11:44:19.702Z,2756.25
2019-02-12T11:45:19.740Z,2559.38
2019-02-12T11:46:19.657Z,2441.25
2019-02-12T11:47:19.788Z,2362.50
2019-02-12T11:48:19.637Z,2446.88
2019-02-12T11:49:19.733Z,2368.12
2019-02-12T11:50:19.636Z,2469.38
2019-02-12T11:51:19.604Z,2745.00
2019-02-12T11:52:19.591Z,3015.00
2019-02-12T11:53:19.623Z,2829.38
2019-02-12T11:54:20.534Z,3138.75
2019-02-12T11:55:19.565Z,2593.12
2019-02-12T11:56:19.555Z,3048.75
2019-02-12T11:57:19.538Z,3420.00
2019-02-12T11:58:19.531Z,3408.75
2019-02-12T11:59:19.567Z,3290.62
2019-02-12T12:00:19.514Z,3352.50
2019-02-12T12:01:19.509Z,3285.00
2019-02-12T12:02:19.508Z,3060.00
2019-02-12T12:03:19.477Z,3341.25
2019-02-12T12:04:19.464Z,3251.25
2019-02-12T12:05:19.541Z,3223.12
2019-02-12T12:06:19.445Z,3391.88
2019-02-12T12:07:19.438Z,3245.62
2019-02-12T12:08:19.463Z,3228.75
2019-02-12T12:09:19.429Z,3335.62
2019-02-12T12:10:19.406Z,3318.75
2019-02-12T12:11:19.425Z,3076.88
2019-02-12T12:12:19.391Z,2728.12
2019-02-12T12:13:19.370Z,2880.00
2019-02-12T12:14:20.049Z,2902.50
2019-02-12T12:15:20.353Z,2818.12
2019-02-12T12:16:19.343Z,2795.62
2019-02-12T12:17:19.372Z,2908.12
2019-02-12T12:18:19.324Z,2953.12
2019-02-12T12:19:19.313Z,2941.88
2019-02-12T12:20:20.301Z,3150.00
2019-02-12T12:21:19.284Z,3155.62
2019-02-12T12:22:19.272Z,3037.50
2019-02-12T12:23:19.323Z,2953.12
2019-02-12T12:24:19.254Z,2835.00
2019-02-12T12:25:19.352Z,2638.12
2019-02-12T12:26:19.284Z,2486.25
2019-02-12T12:27:19.217Z,2452.50
2019-02-12T12:28:19.218Z,2278.12
2019-02-12T12:29:19.281Z,2154.38
2019-02-12T12:30:19.190Z,2030.62
2019-02-12T12:31:19.175Z,2041.88
2019-02-12T12:32:19.163Z,2221.88
2019-02-12T12:33:19.162Z,2283.75
2019-02-12T12:34:19.219Z,2255.62
2019-02-12T12:35:19.135Z,2233.12
2019-02-12T12:36:19.149Z,2086.88
2019-02-12T12:37:19.163Z,2013.75
2019-02-12T12:38:19.099Z,2053.12
2019-02-12T12:39:19.084Z,2086.88
2019-02-12T12:40:19.075Z,2030.62
2019-02-12T12:41:19.092Z,2131.88
2019-02-12T12:42:19.051Z,2238.75
2019-02-12T12:43:19.100Z,2053.12
2019-02-12T12:44:19.047Z,1867.50
2019-02-12T12:45:19.034Z,1783.12
2019-02-12T12:46:19.036Z,1698.75
2019-02-12T12:47:19.006Z,1563.75
2019-02-12T12:48:19.005Z,1485.00
2019-02-12T12:49:19.015Z,1462.50
2019-02-12T12:50:18.970Z,1501.88
2019-02-12T12:51:18.946Z,1558.12
2019-02-12T12:52:18.955Z,1580.62
2019-02-12T12:53:18.927Z,1828.12
2019-02-12T12:54:18.920Z,1856.25
2019-02-12T12:55:18.949Z,1777.50
2019-02-12T12:56:18.904Z,1721.25
2019-02-12T12:57:18.898Z,1884.38
2019-02-12T12:58:18.886Z,1760.62